Time;durP1;ratioP1;P1;durP2;ratioP2;P2;SDS_P1;SDS_P2;PMS_P1;PMS_P2;Temp;Humidity;BMP_temperature;BMP_pressure;BME280_temperature;BME280_humidity;BME280_pressure;Samples;Min_cycle;Max_cycle;Signal;HPM_P1;HPM_P2
2023/04/08 00:00:50;;;;;;;12.43;11.20;;;;;;;;;;4985421;28;20289;-81
2023/04/08 00:03:16;;;;;;;12.63;10.57;;;;;;;;;;4992871;28;20223;-80
2023/04/08 00:05:42;;;;;;;12.40;11.10;;;;;;;;;;4993417;28;20732;-80
2023/04/08 00:08:09;;;;;;;12.67;11.37;;;;;;;;;;4993332;28;20226;-81
2023/04/08 00:10:35;;;;;;;11.90;10.70;;;;;;;;;;4992486;28;20733;-80
2023/04/08 00:13:00;;;;;;;13.33;11.93;;;;;;;;;;4977106;28;20222;-81
2023/04/08 00:15:26;;;;;;;13.97;12.33;;;;;;;;;;4993920;28;20217;-81
2023/04/08 00:17:53;;;;;;;14.00;12.53;;;;;;;;;;4978422;28;20593;-82
2023/04/08 00:20:20;;;;;;;13.97;12.43;;;;;;;;;;4962723;28;20233;-81
2023/04/08 00:22:47;;;;;;;15.03;13.53;;;;;;;;;;4993575;28;20276;-81
2023/04/08 00:25:13;;;;;;;14.27;12.80;;;;;;;;;;4993773;28;20225;-81
2023/04/08 00:27:39;;;;;;;15.23;13.60;;;;;;;;;;4993443;28;20243;-82
2023/04/08 00:30:05;;;;;;;17.03;13.90;;;;;;;;;;4978640;28;20229;-81
2023/04/08 00:32:31;;;;;;;17.53;13.47;;;;;;;;;;4978572;28;20222;-80
2023/04/08 00:34:57;;;;;;;15.20;13.50;;;;;;;;;;4979278;28;20221;-80
2023/04/08 00:37:25;;;;;;;16.13;13.90;;;;;;;;;;4962726;28;20594;-80
2023/04/08 00:39:53;;;;;;;16.17;14.33;;;;;;;;;;4978269;28;20777;-82
2023/04/08 00:42:18;;;;;;;17.80;14.73;;;;;;;;;;4978501;28;20229;-79
2023/04/08 00:44:44;;;;;;;16.43;14.70;;;;;;;;;;4993061;28;20240;-81
2023/04/08 00:47:13;;;;;;;17.43;14.90;;;;;;;;;;4994633;28;20225;-82
2023/04/08 00:49:38;;;;;;;15.77;14.17;;;;;;;;;;4977392;28;20296;-80
2023/04/08 00:52:04;;;;;;;17.13;14.20;;;;;;;;;;4998980;28;20229;-82
2023/04/08 00:54:30;;;;;;;15.30;13.70;;;;;;;;;;4997634;28;20244;-82
2023/04/08 00:56:56;;;;;;;16.03;14.33;;;;;;;;;;5000732;28;20257;-82
2023/04/08 00:59:22;;;;;;;16.53;14.53;;;;;;;;;;4980138;28;20252;-81
2023/04/08 01:02:11;;;;;;;16.90;15.17;;;;;;;;;;4983921;28;20262;-81
2023/04/08 01:04:50;;;;;;;15.63;14.03;;;;;;;;;;4995030;28;20311;-82
2023/04/08 01:09:54;;;;;;;16.80;14.60;;;;;;;;;;4965842;28;20237;-80
2023/04/08 01:12:26;;;;;;;17.00;15.03;;;;;;;;;;4944399;28;20252;-79
2023/04/08 01:14:54;;;;;;;16.80;15.17;;;;;;;;;;4950843;29;20231;-80
2023/04/08 01:17:22;;;;;;;17.33;15.53;;;;;;;;;;4934024;29;20223;-80
2023/04/08 01:19:47;;;;;;;18.33;15.57;;;;;;;;;;4915720;29;20226;-81
2023/04/08 01:22:26;;;;;;;19.03;15.90;;;;;;;;;;4906003;29;20231;-81
2023/04/08 01:24:56;;;;;;;17.73;15.70;;;;;;;;;;4938292;29;20237;-81
2023/04/08 01:27:22;;;;;;;17.27;15.47;;;;;;;;;;4938588;29;21804;-81
2023/04/08 01:29:50;;;;;;;18.17;15.57;;;;;;;;;;4941531;29;20228;-80
2023/04/08 01:32:20;;;;;;;18.00;16.10;;;;;;;;;;4897302;29;20314;-81
2023/04/08 01:34:46;;;;;;;19.67;16.63;;;;;;;;;;4911630;29;20707;-80
2023/04/08 01:37:14;;;;;;;18.20;16.07;;;;;;;;;;4915049;28;20231;-79
2023/04/08 01:39:40;;;;;;;19.23;16.47;;;;;;;;;;4921061;29;20231;-81
2023/04/08 01:42:08;;;;;;;19.70;16.27;;;;;;;;;;4922389;28;20827;-79
2023/04/08 01:44:34;;;;;;;21.53;16.67;;;;;;;;;;4931739;29;20236;-81
2023/04/08 01:47:04;;;;;;;20.07;17.00;;;;;;;;;;4924995;29;20398;-81
2023/04/08 01:49:35;;;;;;;22.47;17.73;;;;;;;;;;4913799;29;20241;-81
2023/04/08 01:52:02;;;;;;;20.60;17.93;;;;;;;;;;4915473;29;20232;-81
2023/04/08 01:54:28;;;;;;;22.93;18.83;;;;;;;;;;4920064;29;20215;-81
2023/04/08 01:56:56;;;;;;;22.93;19.33;;;;;;;;;;4934017;29;20227;-81
2023/04/08 01:59:24;;;;;;;23.23;18.57;;;;;;;;;;4915971;29;20315;-79
2023/04/08 02:01:49;;;;;;;23.17;18.80;;;;;;;;;;4899849;29;20224;-82
2023/04/08 02:04:18;;;;;;;23.87;18.77;;;;;;;;;;4908999;28;20228;-81
2023/04/08 02:06:46;;;;;;;21.70;18.50;;;;;;;;;;4931499;29;20220;-82
2023/04/08 02:09:14;;;;;;;24.93;19.73;;;;;;;;;;4895422;29;20227;-81
2023/04/08 02:11:42;;;;;;;23.03;19.60;;;;;;;;;;4905768;29;20223;-81
2023/04/08 02:14:07;;;;;;;20.73;17.73;;;;;;;;;;4919485;29;20250;-82
2023/04/08 02:16:41;;;;;;;19.47;16.73;;;;;;;;;;4934773;29;20306;-82
2023/04/08 02:19:19;;;;;;;22.17;18.43;;;;;;;;;;4902190;29;20227;-81
2023/04/08 02:21:51;;;;;;;23.57;18.03;;;;;;;;;;4910066;29;20229;-80
2023/04/08 02:24:19;;;;;;;19.77;16.90;;;;;;;;;;4922001;29;20724;-81
2023/04/08 02:26:49;;;;;;;20.07;17.17;;;;;;;;;;4904575;29;20244;-82
2023/04/08 02:29:15;;;;;;;21.63;17.73;;;;;;;;;;4914252;29;20220;-81
2023/04/08 02:31:45;;;;;;;20.97;17.93;;;;;;;;;;4910456;29;20226;-80
2023/04/08 02:34:12;;;;;;;20.73;17.60;;;;;;;;;;4929515;29;20230;-81
2023/04/08 02:36:41;;;;;;;19.23;16.43;;;;;;;;;;4892267;29;20235;-81
2023/04/08 02:39:13;;;;;;;21.13;17.43;;;;;;;;;;4945747;29;20301;-81
2023/04/08 02:41:41;;;;;;;19.80;16.90;;;;;;;;;;4929914;29;20805;-81
2023/04/08 02:44:06;;;;;;;19.07;15.80;;;;;;;;;;4928961;29;20228;-81
2023/04/08 02:46:32;;;;;;;17.67;15.77;;;;;;;;;;4931240;29;20283;-81
2023/04/08 02:48:57;;;;;;;21.40;16.20;;;;;;;;;;4926560;29;20219;-81
2023/04/08 02:51:23;;;;;;;18.10;15.03;;;;;;;;;;4898636;29;20232;-80
2023/04/08 02:53:51;;;;;;;17.87;14.83;;;;;;;;;;4887956;29;20223;-80
2023/04/08 02:56:16;;;;;;;18.97;16.07;;;;;;;;;;4917341;29;20228;-80
2023/04/08 02:58:46;;;;;;;19.57;15.87;;;;;;;;;;4931071;29;20231;-81
2023/04/08 03:01:14;;;;;;;17.90;15.90;;;;;;;;;;4890664;29;20223;-81
2023/04/08 03:03:45;;;;;;;17.60;14.83;;;;;;;;;;4914407;29;20295;-80
2023/04/08 03:06:12;;;;;;;17.80;15.90;;;;;;;;;;4918982;28;20227;-81
2023/04/08 03:08:38;;;;;;;17.77;15.17;;;;;;;;;;4938426;28;20730;-80
2023/04/08 03:11:05;;;;;;;16.93;14.77;;;;;;;;;;4934874;29;20219;-79
2023/04/08 03:13:31;;;;;;;16.27;14.57;;;;;;;;;;4921685;29;20230;-81
2023/04/08 03:16:01;;;;;;;15.80;14.20;;;;;;;;;;4933583;29;20224;-81
2023/04/08 03:18:27;;;;;;;16.23;14.13;;;;;;;;;;4922115;29;20223;-79
2023/04/08 03:20:57;;;;;;;15.80;14.03;;;;;;;;;;4923273;29;20283;-79
2023/04/08 03:23:25;;;;;;;16.70;14.67;;;;;;;;;;4941562;29;20235;-79
2023/04/08 03:25:55;;;;;;;15.43;13.83;;;;;;;;;;4934826;29;20271;-79
2023/04/08 03:28:21;;;;;;;17.07;14.50;;;;;;;;;;4910205;29;20228;-81
2023/04/08 03:30:49;;;;;;;18.60;14.73;;;;;;;;;;4907039;29;20251;-81
2023/04/08 03:33:16;;;;;;;15.07;13.47;;;;;;;;;;4937339;29;20224;-80
2023/04/08 03:35:44;;;;;;;19.93;15.20;;;;;;;;;;4906261;29;20231;-80
2023/04/08 03:38:10;;;;;;;18.63;15.87;;;;;;;;;;4917773;28;20231;-80
2023/04/08 03:40:35;;;;;;;19.87;14.57;;;;;;;;;;4918270;29;20247;-81
2023/04/08 03:43:01;;;;;;;16.33;14.63;;;;;;;;;;4918035;29;20232;-81
2023/04/08 03:45:28;;;;;;;17.07;14.00;;;;;;;;;;4919012;29;20227;-81
2023/04/08 03:47:58;;;;;;;16.87;15.03;;;;;;;;;;4930269;29;20222;-80
2023/04/08 03:50:29;;;;;;;16.17;14.47;;;;;;;;;;4930746;28;20583;-80
2023/04/08 03:52:54;;;;;;;17.43;14.53;;;;;;;;;;4935710;29;20222;-81
2023/04/08 03:55:22;;;;;;;17.73;14.33;;;;;;;;;;4917967;29;20220;-79
2023/04/08 03:57:50;;;;;;;18.03;14.53;;;;;;;;;;4948100;28;20235;-80
2023/04/08 04:00:16;;;;;;;18.27;15.50;;;;;;;;;;4934695;29;20711;-79
2023/04/08 04:02:45;;;;;;;18.23;15.00;;;;;;;;;;4921747;29;20235;-80
2023/04/08 04:05:11;;;;;;;19.20;15.90;;;;;;;;;;4936454;29;20249;-81
2023/04/08 04:07:39;;;;;;;18.17;15.63;;;;;;;;;;4918212;29;20664;-80
2023/04/08 04:10:10;;;;;;;20.27;15.93;;;;;;;;;;4921399;29;20251;-81
2023/04/08 04:12:38;;;;;;;19.60;16.00;;;;;;;;;;4918179;29;20230;-81
2023/04/08 04:15:09;;;;;;;18.90;15.80;;;;;;;;;;4908917;28;20892;-80
2023/04/08 04:17:34;;;;;;;20.43;15.97;;;;;;;;;;4917994;29;20243;-79
2023/04/08 04:20:05;;;;;;;19.67;16.77;;;;;;;;;;4914282;29;20212;-79
2023/04/08 04:22:33;;;;;;;21.40;16.23;;;;;;;;;;4915562;29;20234;-80
2023/04/08 04:24:58;;;;;;;20.67;15.57;;;;;;;;;;4934351;29;20245;-80
2023/04/08 04:27:24;;;;;;;18.37;16.27;;;;;;;;;;4923121;29;20286;-80
2023/04/08 04:29:52;;;;;;;19.47;15.73;;;;;;;;;;4918089;29;20314;-80
2023/04/08 04:32:18;;;;;;;19.03;16.03;;;;;;;;;;4906281;29;20352;-80
2023/04/08 04:34:43;;;;;;;18.30;15.53;;;;;;;;;;4909767;29;20360;-80
2023/04/08 04:37:14;;;;;;;19.80;15.80;;;;;;;;;;4935773;28;20704;-81
2023/04/08 04:39:41;;;;;;;19.23;16.37;;;;;;;;;;4915478;29;20215;-81
2023/04/08 04:42:09;;;;;;;20.07;16.17;;;;;;;;;;4931745;29;20219;-81
2023/04/08 04:44:37;;;;;;;21.70;16.53;;;;;;;;;;4910502;29;20298;-81
2023/04/08 04:47:02;;;;;;;19.50;16.40;;;;;;;;;;4917585;29;20309;-81
2023/04/08 04:49:32;;;;;;;21.43;16.53;;;;;;;;;;4918879;29;20419;-80
2023/04/08 04:51:58;;;;;;;19.70;16.13;;;;;;;;;;4910370;29;20223;-80
2023/04/08 04:54:28;;;;;;;19.67;16.47;;;;;;;;;;4905283;29;20228;-80
2023/04/08 04:56:59;;;;;;;19.10;16.63;;;;;;;;;;4918193;29;20239;-81
2023/04/08 04:59:28;;;;;;;19.30;15.50;;;;;;;;;;4917725;29;20265;-80
2023/04/08 05:02:01;;;;;;;17.77;15.87;;;;;;;;;;4931118;29;20219;-80
2023/04/08 05:04:26;;;;;;;20.20;16.00;;;;;;;;;;4931082;29;20232;-81
2023/04/08 05:06:54;;;;;;;18.13;15.60;;;;;;;;;;4905731;29;20308;-79
2023/04/08 05:09:20;;;;;;;18.57;15.57;;;;;;;;;;4906397;29;20653;-81
2023/04/08 05:11:45;;;;;;;17.90;16.00;;;;;;;;;;4923072;29;20226;-81
2023/04/08 05:14:11;;;;;;;18.73;16.57;;;;;;;;;;4925854;29;20278;-81
2023/04/08 05:16:37;;;;;;;19.77;17.00;;;;;;;;;;4930875;29;20320;-81
2023/04/08 05:19:06;;;;;;;20.17;17.00;;;;;;;;;;4913235;28;20612;-81
2023/04/08 05:21:31;;;;;;;20.67;16.63;;;;;;;;;;4922342;29;20258;-80
2023/04/08 05:24:01;;;;;;;20.23;16.60;;;;;;;;;;4927639;29;20718;-80
2023/04/08 05:26:26;;;;;;;20.83;16.97;;;;;;;;;;4931848;29;20270;-81
2023/04/08 05:28:52;;;;;;;19.87;16.43;;;;;;;;;;4910463;29;20288;-81
2023/04/08 05:31:18;;;;;;;20.17;16.57;;;;;;;;;;4900356;28;20240;-80
2023/04/08 05:33:48;;;;;;;18.80;16.33;;;;;;;;;;4905133;29;20215;-81
2023/04/08 05:36:16;;;;;;;18.23;16.23;;;;;;;;;;4909380;29;20709;-81
2023/04/08 05:38:46;;;;;;;18.87;16.43;;;;;;;;;;4915312;29;20302;-80
2023/04/08 05:41:14;;;;;;;21.17;16.87;;;;;;;;;;4906784;28;20228;-81
2023/04/08 05:43:40;;;;;;;20.17;16.80;;;;;;;;;;4907599;29;20241;-79
2023/04/08 05:46:06;;;;;;;19.10;16.33;;;;;;;;;;4936489;29;20220;-80
2023/04/08 05:48:32;;;;;;;20.50;17.07;;;;;;;;;;4920818;29;20720;-80
2023/04/08 05:51:00;;;;;;;20.87;16.93;;;;;;;;;;4916530;29;20223;-81
2023/04/08 05:53:26;;;;;;;22.57;17.00;;;;;;;;;;4916397;28;20610;-80
2023/04/08 05:55:54;;;;;;;20.80;16.07;;;;;;;;;;4943267;28;20227;-81
2023/04/08 05:58:19;;;;;;;21.67;17.23;;;;;;;;;;4900902;29;20227;-81
2023/04/08 06:00:45;;;;;;;22.47;18.07;;;;;;;;;;4919930;28;20223;-79
2023/04/08 06:03:11;;;;;;;19.20;16.93;;;;;;;;;;4932600;29;20297;-81
2023/04/08 06:05:39;;;;;;;19.57;16.37;;;;;;;;;;4932862;29;20246;-81
2023/04/08 06:08:07;;;;;;;19.63;16.83;;;;;;;;;;4921915;29;20603;-79
2023/04/08 06:10:35;;;;;;;21.27;16.43;;;;;;;;;;4936585;28;20713;-80
2023/04/08 06:13:03;;;;;;;19.20;15.90;;;;;;;;;;4908491;29;20222;-80
2023/04/08 06:15:28;;;;;;;19.47;16.60;;;;;;;;;;4916064;28;20246;-81
2023/04/08 06:17:56;;;;;;;22.30;17.33;;;;;;;;;;4933587;29;20228;-81
2023/04/08 06:20:24;;;;;;;21.87;17.57;;;;;;;;;;4932922;29;20543;-80
2023/04/08 06:22:52;;;;;;;18.37;15.73;;;;;;;;;;4923628;29;20238;-79
2023/04/08 06:25:18;;;;;;;19.00;17.00;;;;;;;;;;4939901;29;20258;-79
2023/04/08 06:27:47;;;;;;;22.90;17.00;;;;;;;;;;4912167;29;20704;-80
2023/04/08 06:30:16;;;;;;;19.73;16.43;;;;;;;;;;4906562;29;20223;-80
2023/04/08 06:32:41;;;;;;;21.53;17.13;;;;;;;;;;4928614;29;20242;-80
2023/04/08 06:35:10;;;;;;;21.37;17.80;;;;;;;;;;4930955;29;20890;-80
2023/04/08 06:37:38;;;;;;;21.73;16.80;;;;;;;;;;4917692;29;20223;-81
2023/04/08 06:40:04;;;;;;;24.40;18.13;;;;;;;;;;4926678;29;20306;-79
2023/04/08 06:42:37;;;;;;;19.47;17.17;;;;;;;;;;4904217;29;20219;-81
2023/04/08 06:45:27;;;;;;;19.67;16.90;;;;;;;;;;4927285;29;20223;-81
2023/04/08 06:47:55;;;;;;;20.53;18.30;;;;;;;;;;4929220;29;20232;-81
2023/04/08 06:50:21;;;;;;;22.47;18.10;;;;;;;;;;4914435;28;20684;-80
2023/04/08 06:52:46;;;;;;;20.23;18.10;;;;;;;;;;4908413;29;20255;-78
2023/04/08 06:55:12;;;;;;;23.07;18.07;;;;;;;;;;4914800;29;20230;-80
2023/04/08 06:57:37;;;;;;;21.20;18.20;;;;;;;;;;4930040;23;20254;-81
2023/04/08 07:00:03;;;;;;;24.53;19.23;;;;;;;;;;4997460;28;20236;-80
2023/04/08 07:02:29;;;;;;;24.93;18.90;;;;;;;;;;4968691;28;20311;-82
2023/04/08 07:04:55;;;;;;;21.30;18.33;;;;;;;;;;4967407;28;20758;-81
2023/04/08 07:07:23;;;;;;;21.07;17.77;;;;;;;;;;4981640;28;20267;-81
2023/04/08 07:09:49;;;;;;;20.87;18.50;;;;;;;;;;4976750;28;20640;-81
2023/04/08 07:12:15;;;;;;;21.57;18.93;;;;;;;;;;4999142;28;20235;-83
2023/04/08 07:14:45;;;;;;;22.63;18.50;;;;;;;;;;5006317;28;20221;-80
2023/04/08 07:17:10;;;;;;;22.70;19.30;;;;;;;;;;4981638;28;20229;-80
2023/04/08 07:19:36;;;;;;;21.20;18.03;;;;;;;;;;4997613;28;20385;-80
2023/04/08 07:22:01;;;;;;;22.97;20.33;;;;;;;;;;4983619;28;20252;-81
2023/04/08 07:24:27;;;;;;;23.77;19.23;;;;;;;;;;4989658;28;20216;-82
2023/04/08 07:26:55;;;;;;;26.33;20.33;;;;;;;;;;4968832;28;20753;-83
2023/04/08 07:29:20;;;;;;;22.57;20.00;;;;;;;;;;4984194;28;20220;-81
2023/04/08 07:31:49;;;;;;;21.97;19.27;;;;;;;;;;5010649;28;20635;-81
2023/04/08 07:34:16;;;;;;;21.33;18.23;;;;;;;;;;4979290;28;20209;-81
2023/04/08 07:36:42;;;;;;;23.83;18.93;;;;;;;;;;4984500;28;20235;-82
2023/04/08 07:39:10;;;;;;;23.67;20.20;;;;;;;;;;4985428;28;20225;-78
2023/04/08 07:41:35;;;;;;;23.40;19.63;;;;;;;;;;4988703;28;20221;-79
2023/04/08 07:44:01;;;;;;;22.30;19.43;;;;;;;;;;4983587;28;20229;-80
2023/04/08 07:46:26;;;;;;;22.40;19.37;;;;;;;;;;5008343;28;20225;-81
2023/04/08 07:48:54;;;;;;;21.23;19.03;;;;;;;;;;5002669;28;20225;-82
2023/04/08 07:51:22;;;;;;;23.37;20.40;;;;;;;;;;4970815;28;20236;-82
2023/04/08 07:53:48;;;;;;;23.40;20.43;;;;;;;;;;5002466;28;20227;-81
2023/04/08 07:56:17;;;;;;;24.17;21.10;;;;;;;;;;4990985;28;20221;-82
2023/04/08 07:58:45;;;;;;;23.03;20.47;;;;;;;;;;4986163;28;20282;-82
2023/04/08 08:01:17;;;;;;;23.53;20.47;;;;;;;;;;5001218;28;20223;-81
2023/04/08 08:03:43;;;;;;;24.60;19.13;;;;;;;;;;4971077;28;20220;-81
2023/04/08 08:06:11;;;;;;;25.23;20.60;;;;;;;;;;4978097;28;20778;-81
2023/04/08 08:08:36;;;;;;;23.00;19.70;;;;;;;;;;4985808;28;20572;-81
2023/04/08 08:11:02;;;;;;;24.20;20.73;;;;;;;;;;4976278;28;20227;-81
2023/04/08 08:13:30;;;;;;;24.67;20.27;;;;;;;;;;4999818;28;20221;-82
2023/04/08 08:15:58;;;;;;;23.53;21.00;;;;;;;;;;5003370;28;20682;-83
2023/04/08 08:18:23;;;;;;;24.53;21.00;;;;;;;;;;4975259;28;20217;-82
2023/04/08 08:20:49;;;;;;;26.23;21.03;;;;;;;;;;5004303;28;20711;-83
2023/04/08 08:23:15;;;;;;;23.73;20.27;;;;;;;;;;4959618;28;20223;-81
2023/04/08 08:25:40;;;;;;;23.00;19.33;;;;;;;;;;4999550;28;20224;-82
2023/04/08 08:28:06;;;;;;;23.20;19.73;;;;;;;;;;4991815;28;20230;-81
2023/04/08 08:30:31;;;;;;;24.03;20.00;;;;;;;;;;4991191;28;20274;-81
2023/04/08 08:32:59;;;;;;;22.87;20.37;;;;;;;;;;4999356;28;20213;-82
2023/04/08 08:35:25;;;;;;;24.57;21.07;;;;;;;;;;5016670;28;20226;-81
2023/04/08 08:37:50;;;;;;;24.77;21.43;;;;;;;;;;4999413;28;20287;-80
2023/04/08 08:40:16;;;;;;;23.73;21.33;;;;;;;;;;4986667;28;20217;-79
2023/04/08 08:42:49;;;;;;;24.30;21.53;;;;;;;;;;4985248;28;20581;-81
2023/04/08 08:45:15;;;;;;;22.13;19.80;;;;;;;;;;4991388;28;20244;-81
2023/04/08 08:47:40;;;;;;;22.93;19.13;;;;;;;;;;4973066;28;20283;-80
2023/04/08 08:50:08;;;;;;;22.07;19.70;;;;;;;;;;4998112;28;20225;-81
2023/04/08 08:52:36;;;;;;;22.37;19.97;;;;;;;;;;4998150;28;20217;-83
2023/04/08 08:55:04;;;;;;;21.97;19.33;;;;;;;;;;4995931;28;20225;-80
2023/04/08 08:57:30;;;;;;;22.40;19.23;;;;;;;;;;4989395;28;20279;-82
2023/04/08 08:59:56;;;;;;;23.87;18.87;;;;;;;;;;4985688;28;20283;-82
2023/04/08 09:02:33;;;;;;;23.47;19.40;;;;;;;;;;4998751;28;20255;-83
2023/04/08 09:05:00;;;;;;;24.33;18.63;;;;;;;;;;4983765;28;20229;-81
2023/04/08 09:07:26;;;;;;;20.37;18.17;;;;;;;;;;5000890;28;20317;-82
2023/04/08 09:09:52;;;;;;;21.90;19.37;;;;;;;;;;4967924;28;20315;-83
2023/04/08 09:12:23;;;;;;;20.80;18.67;;;;;;;;;;4956133;28;20312;-80
2023/04/08 09:14:49;;;;;;;22.10;19.53;;;;;;;;;;4966569;28;20224;-82
2023/04/08 09:17:16;;;;;;;19.73;17.53;;;;;;;;;;4963904;28;20240;-82
2023/04/08 09:20:08;;;;;;;22.60;19.67;;;;;;;;;;4952745;28;20969;-81
2023/04/08 09:22:52;;;;;;;23.77;18.73;;;;;;;;;;4977687;28;20227;-82
2023/04/08 09:25:27;;;;;;;21.50;17.83;;;;;;;;;;4984791;28;20220;-81
2023/04/08 09:27:53;;;;;;;20.83;17.63;;;;;;;;;;4972605;28;20683;-81
2023/04/08 09:30:21;;;;;;;19.87;17.47;;;;;;;;;;4971964;28;20222;-81
2023/04/08 09:32:56;;;;;;;20.30;17.87;;;;;;;;;;4968200;28;20232;-79
2023/04/08 09:35:24;;;;;;;20.10;18.00;;;;;;;;;;5003539;28;20688;-82
2023/04/08 09:37:52;;;;;;;18.07;16.30;;;;;;;;;;4956914;28;20232;-81
2023/04/08 09:40:18;;;;;;;21.40;18.60;;;;;;;;;;4984802;28;20223;-82
2023/04/08 09:42:47;;;;;;;25.10;18.77;;;;;;;;;;5001676;28;20307;-80
2023/04/08 09:45:18;;;;;;;21.07;18.17;;;;;;;;;;4982737;28;20645;-81
2023/04/08 09:47:59;;;;;;;20.17;18.07;;;;;;;;;;4957491;28;20249;-82
2023/04/08 09:50:31;;;;;;;20.07;17.27;;;;;;;;;;4998113;28;20255;-79
2023/04/08 09:53:01;;;;;;;19.83;17.60;;;;;;;;;;4982987;28;20236;-80
2023/04/08 09:55:30;;;;;;;22.47;18.87;;;;;;;;;;5001313;28;20240;-82
2023/04/08 09:58:01;;;;;;;21.23;18.63;;;;;;;;;;4993168;28;20228;-82
2023/04/08 10:00:32;;;;;;;21.70;18.53;;;;;;;;;;4970651;28;20232;-81
2023/04/08 10:03:28;;;;;;;20.53;18.17;;;;;;;;;;4984923;28;20304;-80
2023/04/08 10:05:58;;;;;;;21.37;18.13;;;;;;;;;;5018712;28;20256;-79
2023/04/08 10:08:24;;;;;;;21.00;18.27;;;;;;;;;;4983790;28;20221;-79
2023/04/08 10:10:50;;;;;;;24.70;19.93;;;;;;;;;;4981971;28;20599;-78
2023/04/08 10:13:15;;;;;;;21.77;19.37;;;;;;;;;;4974784;28;20221;-81
2023/04/08 10:15:43;;;;;;;22.93;19.27;;;;;;;;;;4983694;28;20236;-79
2023/04/08 10:18:08;;;;;;;23.33;19.63;;;;;;;;;;5010285;28;20236;-79
2023/04/08 10:20:38;;;;;;;25.27;20.47;;;;;;;;;;5004071;28;20216;-80
2023/04/08 10:23:06;;;;;;;22.77;20.30;;;;;;;;;;5006007;28;20292;-80
2023/04/08 10:25:32;;;;;;;24.33;20.03;;;;;;;;;;4983093;28;20324;-81
2023/04/08 10:28:22;;;;;;;21.30;19.03;;;;;;;;;;4969903;28;20225;-81
2023/04/08 10:30:54;;;;;;;21.63;18.43;;;;;;;;;;5015768;28;20221;-81
2023/04/08 10:33:28;;;;;;;20.20;17.13;;;;;;;;;;4997455;28;20212;-79
2023/04/08 10:36:15;;;;;;;20.10;16.83;;;;;;;;;;5014895;28;20228;-80
2023/04/08 10:38:41;;;;;;;19.27;15.90;;;;;;;;;;4998768;28;20268;-81
2023/04/08 10:41:08;;;;;;;20.50;16.63;;;;;;;;;;4985257;28;20224;-80
2023/04/08 10:43:34;;;;;;;17.90;15.67;;;;;;;;;;4975977;28;20224;-82
2023/04/08 10:46:00;;;;;;;23.33;16.90;;;;;;;;;;5004168;28;20315;-81
2023/04/08 10:48:28;;;;;;;18.97;15.93;;;;;;;;;;4984172;28;20225;-80
2023/04/08 10:50:59;;;;;;;18.33;15.80;;;;;;;;;;4968839;28;20244;-79
2023/04/08 10:53:35;;;;;;;18.40;16.40;;;;;;;;;;4974872;28;20224;-81
2023/04/08 10:56:11;;;;;;;20.07;16.63;;;;;;;;;;4983795;28;20220;-81
2023/04/08 10:58:55;;;;;;;21.80;17.03;;;;;;;;;;4988385;28;20228;-82
2023/04/08 11:01:20;;;;;;;19.07;16.77;;;;;;;;;;4966631;28;20280;-80
2023/04/08 11:03:46;;;;;;;19.60;16.60;;;;;;;;;;4983858;28;20251;-80
2023/04/08 11:06:14;;;;;;;20.37;16.40;;;;;;;;;;4998289;28;20256;-81
2023/04/08 11:08:44;;;;;;;20.10;16.93;;;;;;;;;;4973307;28;20216;-82
2023/04/08 11:11:10;;;;;;;19.20;17.17;;;;;;;;;;4967152;28;20273;-82
2023/04/08 11:13:40;;;;;;;19.43;17.23;;;;;;;;;;4982236;28;20236;-80
2023/04/08 11:16:07;;;;;;;20.67;17.77;;;;;;;;;;4979948;28;20708;-80
2023/04/08 11:18:36;;;;;;;22.53;17.73;;;;;;;;;;5003436;28;20224;-81
2023/04/08 11:21:08;;;;;;;23.43;17.53;;;;;;;;;;4995899;28;20216;-80
2023/04/08 11:23:33;;;;;;;21.70;17.97;;;;;;;;;;4965539;28;20598;-82
2023/04/08 11:25:59;;;;;;;21.47;17.73;;;;;;;;;;4972148;28;20232;-80
2023/04/08 11:28:24;;;;;;;19.37;17.30;;;;;;;;;;5004276;28;20287;-82
2023/04/08 11:30:52;;;;;;;22.77;17.83;;;;;;;;;;4984043;28;20228;-79
2023/04/08 11:33:21;;;;;;;21.17;17.97;;;;;;;;;;4971881;28;20209;-79
2023/04/08 11:35:50;;;;;;;20.53;17.07;;;;;;;;;;4989994;28;20578;-80
2023/04/08 11:38:21;;;;;;;23.93;17.90;;;;;;;;;;4983672;28;20229;-79
2023/04/08 11:40:56;;;;;;;20.67;17.77;;;;;;;;;;4985147;28;20213;-78
2023/04/08 11:43:22;;;;;;;25.03;17.87;;;;;;;;;;4978692;28;20263;-79
2023/04/08 11:45:47;;;;;;;21.37;18.27;;;;;;;;;;4997598;28;20260;-81
2023/04/08 11:48:14;;;;;;;23.20;17.33;;;;;;;;;;4968073;28;20229;-80
2023/04/08 11:50:40;;;;;;;22.67;18.07;;;;;;;;;;4981987;28;20250;-80
2023/04/08 11:53:24;;;;;;;21.33;18.00;;;;;;;;;;4981317;28;20224;-78
2023/04/08 11:55:49;;;;;;;21.03;17.33;;;;;;;;;;4981306;28;20217;-81
2023/04/08 11:58:15;;;;;;;20.30;17.23;;;;;;;;;;4977117;28;20258;-81
2023/04/08 12:00:41;;;;;;;23.27;17.37;;;;;;;;;;4980852;28;20251;-80
2023/04/08 12:03:07;;;;;;;22.20;19.07;;;;;;;;;;4969327;28;20232;-80
2023/04/08 12:05:32;;;;;;;20.40;18.10;;;;;;;;;;4972904;28;20216;-79
2023/04/08 12:07:58;;;;;;;20.83;17.17;;;;;;;;;;5005879;28;20298;-79
2023/04/08 12:10:26;;;;;;;24.37;18.27;;;;;;;;;;4988065;28;20225;-79
2023/04/08 12:12:52;;;;;;;21.10;18.63;;;;;;;;;;4974096;28;20232;-80
2023/04/08 12:15:20;;;;;;;20.63;18.33;;;;;;;;;;5003099;28;20216;-81
2023/04/08 12:17:46;;;;;;;22.37;18.17;;;;;;;;;;4988084;28;20303;-82
2023/04/08 12:20:16;;;;;;;25.00;18.70;;;;;;;;;;4989965;28;20223;-81
2023/04/08 12:22:44;;;;;;;21.73;18.50;;;;;;;;;;4995197;28;20248;-81
2023/04/08 12:25:09;;;;;;;22.43;19.87;;;;;;;;;;4969268;28;20347;-78
2023/04/08 12:27:35;;;;;;;19.87;17.57;;;;;;;;;;4981235;28;20230;-79
2023/04/08 12:30:02;;;;;;;21.60;17.50;;;;;;;;;;4986257;28;20232;-82
2023/04/08 12:32:29;;;;;;;20.00;17.17;;;;;;;;;;4982352;28;20232;-80
2023/04/08 12:34:55;;;;;;;20.00;16.67;;;;;;;;;;5002673;28;20255;-81
2023/04/08 12:37:21;;;;;;;18.70;16.70;;;;;;;;;;4965563;28;20222;-81
2023/04/08 12:39:46;;;;;;;22.27;16.80;;;;;;;;;;4985003;28;20254;-80
2023/04/08 12:42:12;;;;;;;21.67;17.77;;;;;;;;;;5001661;28;20216;-81
2023/04/08 12:44:37;;;;;;;20.67;17.60;;;;;;;;;;4978568;28;20225;-80
2023/04/08 12:47:05;;;;;;;18.83;16.87;;;;;;;;;;4995748;28;20220;-80
2023/04/08 12:49:31;;;;;;;19.67;17.07;;;;;;;;;;4999823;28;20282;-80
2023/04/08 12:51:58;;;;;;;17.83;15.90;;;;;;;;;;4988875;28;20225;-80
2023/04/08 12:54:26;;;;;;;19.37;16.33;;;;;;;;;;4985888;28;20602;-80
2023/04/08 12:56:52;;;;;;;19.87;16.50;;;;;;;;;;4998394;28;20231;-80
2023/04/08 12:59:18;;;;;;;17.60;15.07;;;;;;;;;;4982847;28;20929;-79
2023/04/08 13:01:48;;;;;;;15.67;13.97;;;;;;;;;;4989463;28;20220;-78
2023/04/08 13:04:14;;;;;;;19.00;14.90;;;;;;;;;;5005390;28;20221;-79
2023/04/08 13:06:39;;;;;;;18.83;14.53;;;;;;;;;;5002541;28;20243;-80
2023/04/08 13:09:07;;;;;;;17.57;14.73;;;;;;;;;;4969492;28;20599;-81
2023/04/08 13:11:33;;;;;;;17.20;13.70;;;;;;;;;;4985005;28;20303;-80
2023/04/08 13:13:59;;;;;;;17.00;14.37;;;;;;;;;;5002611;28;20228;-80
2023/04/08 13:16:26;;;;;;;16.47;14.33;;;;;;;;;;4985552;28;20250;-80
2023/04/08 13:18:55;;;;;;;16.63;14.47;;;;;;;;;;5004970;28;20678;-79
2023/04/08 13:21:22;;;;;;;16.00;14.10;;;;;;;;;;5014170;28;20219;-82
2023/04/08 13:23:50;;;;;;;17.87;14.77;;;;;;;;;;5002645;28;20241;-80
2023/04/08 13:26:16;;;;;;;17.30;14.57;;;;;;;;;;5012933;28;20231;-81
2023/04/08 13:28:41;;;;;;;15.97;13.97;;;;;;;;;;4980401;28;20247;-79
2023/04/08 13:31:07;;;;;;;15.90;14.20;;;;;;;;;;4993553;28;20270;-79
2023/04/08 13:33:35;;;;;;;15.97;13.73;;;;;;;;;;4983563;28;20224;-79
2023/04/08 13:36:00;;;;;;;15.13;13.53;;;;;;;;;;4985637;28;20725;-78
2023/04/08 13:38:26;;;;;;;16.27;14.50;;;;;;;;;;5005510;28;20224;-78
2023/04/08 13:40:52;;;;;;;16.87;13.47;;;;;;;;;;5003573;28;20232;-77
2023/04/08 13:43:17;;;;;;;14.70;13.10;;;;;;;;;;4986164;28;20217;-78
2023/04/08 13:45:43;;;;;;;14.43;13.03;;;;;;;;;;4991867;28;20223;-78
2023/04/08 13:48:09;;;;;;;16.00;13.97;;;;;;;;;;5003893;28;20247;-78
2023/04/08 13:50:40;;;;;;;17.23;15.07;;;;;;;;;;4995256;28;20289;-80
2023/04/08 13:53:06;;;;;;;18.10;15.20;;;;;;;;;;4989104;28;20225;-78
2023/04/08 13:55:31;;;;;;;17.13;15.43;;;;;;;;;;4991322;28;20224;-78
2023/04/08 13:57:57;;;;;;;19.93;15.70;;;;;;;;;;4973240;28;20244;-79
2023/04/08 14:00:24;;;;;;;17.13;15.30;;;;;;;;;;4997831;28;20247;-79
2023/04/08 14:02:50;;;;;;;16.47;14.80;;;;;;;;;;5024108;28;20729;-79
2023/04/08 14:05:15;;;;;;;17.47;15.67;;;;;;;;;;4989756;28;20231;-79
2023/04/08 14:07:43;;;;;;;19.53;16.03;;;;;;;;;;4992896;28;20236;-78
2023/04/08 14:10:09;;;;;;;17.97;15.57;;;;;;;;;;4983424;28;20236;-79
2023/04/08 14:12:35;;;;;;;17.80;15.83;;;;;;;;;;4979963;28;20225;-80
2023/04/08 14:15:01;;;;;;;18.63;15.57;;;;;;;;;;4986405;28;20220;-79
2023/04/08 14:17:27;;;;;;;20.97;16.23;;;;;;;;;;4981864;28;20216;-80
2023/04/08 14:19:52;;;;;;;19.03;16.00;;;;;;;;;;4980001;28;20733;-80
2023/04/08 14:22:18;;;;;;;18.50;15.23;;;;;;;;;;4978197;28;20231;-79